Time;durP1;ratioP1;P1;durP2;ratioP2;P2;SDS_P1;SDS_P2;PMS_P1;PMS_P2;Temp;Humidity;BMP_temperature;BMP_pressure;BME280_temperature;BME280_humidity;BME280_pressure;Samples;Min_cycle;Max_cycle;Signal;HPM_P1;HPM_P2
2022/07/10 00:01:41;;;;;;;5.47;4.73;;;;;;;;;;4949143;28;20209;-80
2022/07/10 00:04:06;;;;;;;5.97;5.40;;;;;;;;;;4949235;28;20275;-80
2022/07/10 00:06:31;;;;;;;5.57;5.07;;;;;;;;;;4934137;29;20684;-80
2022/07/10 00:08:56;;;;;;;5.67;5.23;;;;;;;;;;4935463;29;20186;-80
2022/07/10 00:11:22;;;;;;;5.27;4.87;;;;;;;;;;4936995;29;20189;-80
2022/07/10 00:13:47;;;;;;;5.00;4.60;;;;;;;;;;4935173;29;20248;-80
2022/07/10 00:16:12;;;;;;;5.93;5.43;;;;;;;;;;4938604;29;20188;-80
2022/07/10 00:18:37;;;;;;;5.73;5.23;;;;;;;;;;4949214;28;20278;-80
2022/07/10 00:21:02;;;;;;;6.20;5.67;;;;;;;;;;4949416;28;20290;-80
2022/07/10 00:23:28;;;;;;;5.80;5.37;;;;;;;;;;4940458;29;20223;-79
2022/07/10 00:25:54;;;;;;;5.97;5.40;;;;;;;;;;4949125;28;20226;-80
2022/07/10 00:28:19;;;;;;;6.33;5.70;;;;;;;;;;4930359;29;20191;-79
2022/07/10 00:30:44;;;;;;;5.53;5.10;;;;;;;;;;4950413;28;20185;-80
2022/07/10 00:33:11;;;;;;;6.67;6.07;;;;;;;;;;4948402;28;20263;-80
2022/07/10 00:35:36;;;;;;;7.83;6.90;;;;;;;;;;4948824;29;20187;-80
2022/07/10 00:38:02;;;;;;;7.00;6.13;;;;;;;;;;4932554;29;20250;-80
2022/07/10 00:40:27;;;;;;;9.17;5.93;;;;;;;;;;4950101;28;20246;-80
2022/07/10 00:42:52;;;;;;;7.03;6.43;;;;;;;;;;4942645;29;20183;-79
2022/07/10 00:45:17;;;;;;;6.90;6.37;;;;;;;;;;4948750;28;20503;-79
2022/07/10 00:47:43;;;;;;;6.83;6.23;;;;;;;;;;4947795;28;20176;-80
2022/07/10 00:50:08;;;;;;;7.30;6.60;;;;;;;;;;4948296;29;20216;-80
2022/07/10 00:52:38;;;;;;;6.73;6.23;;;;;;;;;;4956569;28;20217;-79
2022/07/10 00:55:04;;;;;;;6.90;6.30;;;;;;;;;;4933317;28;20247;-80
2022/07/10 00:57:29;;;;;;;7.73;6.80;;;;;;;;;;4933921;29;20219;-80
2022/07/10 00:59:54;;;;;;;7.50;6.83;;;;;;;;;;4931897;29;20281;-80
2022/07/10 01:02:20;;;;;;;7.67;7.00;;;;;;;;;;4945874;28;20214;-80
2022/07/10 01:04:45;;;;;;;6.77;6.23;;;;;;;;;;4932280;29;20209;-80
2022/07/10 01:07:11;;;;;;;8.23;7.13;;;;;;;;;;4946547;28;20239;-80
2022/07/10 01:09:36;;;;;;;7.50;6.80;;;;;;;;;;4948625;28;20241;-80
2022/07/10 01:12:02;;;;;;;7.93;7.23;;;;;;;;;;4930171;29;20187;-80
2022/07/10 01:14:28;;;;;;;7.93;7.23;;;;;;;;;;4953124;28;20189;-80
2022/07/10 01:16:54;;;;;;;8.77;7.87;;;;;;;;;;4931167;29;20190;-80
2022/07/10 01:19:19;;;;;;;7.80;7.03;;;;;;;;;;4936498;29;20180;-80
2022/07/10 01:21:45;;;;;;;8.40;7.60;;;;;;;;;;4945335;28;20212;-80
2022/07/10 01:24:10;;;;;;;7.20;6.60;;;;;;;;;;4952880;28;20235;-79
2022/07/10 01:26:36;;;;;;;7.87;7.23;;;;;;;;;;4946650;28;20180;-80
2022/07/10 01:29:03;;;;;;;8.40;7.60;;;;;;;;;;4948969;28;20218;-80
2022/07/10 01:31:28;;;;;;;8.53;7.63;;;;;;;;;;4950286;28;20182;-80
2022/07/10 01:33:54;;;;;;;9.37;8.47;;;;;;;;;;4949141;28;20233;-80
2022/07/10 01:36:20;;;;;;;8.83;8.03;;;;;;;;;;4949995;28;20178;-80
2022/07/10 01:38:45;;;;;;;9.53;8.43;;;;;;;;;;4932140;29;20246;-79
2022/07/10 01:41:11;;;;;;;9.30;8.40;;;;;;;;;;4947201;28;20201;-80
2022/07/10 01:43:36;;;;;;;8.40;7.70;;;;;;;;;;4948266;28;20182;-80
2022/07/10 01:46:03;;;;;;;10.00;8.63;;;;;;;;;;4933715;29;20182;-80
2022/07/10 01:48:28;;;;;;;10.50;9.20;;;;;;;;;;4953335;28;20230;-80
2022/07/10 01:50:53;;;;;;;11.43;10.43;;;;;;;;;;4946019;28;20194;-80
2022/07/10 01:53:19;;;;;;;12.43;11.17;;;;;;;;;;4948741;28;20190;-80
2022/07/10 01:55:44;;;;;;;11.50;10.30;;;;;;;;;;4947094;28;20197;-79
2022/07/10 01:58:09;;;;;;;10.20;9.10;;;;;;;;;;4948080;29;20179;-80
2022/07/10 02:00:34;;;;;;;11.70;9.83;;;;;;;;;;4946260;28;20202;-79
2022/07/10 02:05:43;;;;;;;11.00;10.00;;;;;;;;;;4932250;29;20206;-79
2022/07/10 02:08:09;;;;;;;10.03;9.13;;;;;;;;;;4947428;28;20186;-79
2022/07/10 02:10:34;;;;;;;9.40;8.60;;;;;;;;;;4947101;28;20190;-79
2022/07/10 02:12:59;;;;;;;9.03;8.23;;;;;;;;;;4947822;28;20182;-80
2022/07/10 02:15:24;;;;;;;10.83;9.93;;;;;;;;;;4945203;28;21220;-80
2022/07/10 02:17:50;;;;;;;10.40;9.40;;;;;;;;;;4931574;29;20205;-80
2022/07/10 02:20:15;;;;;;;7.70;7.00;;;;;;;;;;4935430;29;20187;-79
2022/07/10 02:22:40;;;;;;;9.43;8.63;;;;;;;;;;4945489;28;20176;-80
2022/07/10 02:25:06;;;;;;;9.47;8.27;;;;;;;;;;4950700;28;20231;-80
2022/07/10 02:27:31;;;;;;;9.70;8.77;;;;;;;;;;4950264;28;20182;-79
2022/07/10 02:29:56;;;;;;;10.63;8.87;;;;;;;;;;4947180;28;20261;-79
2022/07/10 02:32:22;;;;;;;9.57;8.77;;;;;;;;;;4930394;29;20210;-79
2022/07/10 02:34:47;;;;;;;10.00;9.00;;;;;;;;;;4946091;28;20187;-79
2022/07/10 02:37:12;;;;;;;8.80;8.00;;;;;;;;;;4947691;28;20204;-80
2022/07/10 02:39:37;;;;;;;9.93;8.93;;;;;;;;;;4947080;28;20206;-79
2022/07/10 02:42:03;;;;;;;9.83;8.93;;;;;;;;;;4949020;28;20270;-79
2022/07/10 02:44:29;;;;;;;11.87;10.77;;;;;;;;;;4946320;28;20229;-79
2022/07/10 02:46:54;;;;;;;10.07;9.17;;;;;;;;;;4946656;28;20229;-79
2022/07/10 02:49:19;;;;;;;9.07;8.17;;;;;;;;;;4932468;29;20175;-79
2022/07/10 02:51:45;;;;;;;9.50;8.53;;;;;;;;;;4952672;28;20220;-79
2022/07/10 02:54:10;;;;;;;12.57;10.87;;;;;;;;;;4952494;28;20194;-80
2022/07/10 02:56:36;;;;;;;10.27;9.27;;;;;;;;;;4937814;29;20205;-80
2022/07/10 02:59:01;;;;;;;12.33;9.77;;;;;;;;;;4950151;28;20205;-79
2022/07/10 03:01:26;;;;;;;10.63;9.57;;;;;;;;;;4952598;28;20261;-79
2022/07/10 03:03:52;;;;;;;10.33;9.33;;;;;;;;;;4934623;29;20277;-80
2022/07/10 03:06:17;;;;;;;9.43;8.50;;;;;;;;;;4952039;28;20186;-80
2022/07/10 03:08:42;;;;;;;11.17;10.27;;;;;;;;;;4949324;29;20186;-80
2022/07/10 03:11:07;;;;;;;9.90;9.10;;;;;;;;;;4949698;28;20281;-79
2022/07/10 03:13:32;;;;;;;11.03;9.97;;;;;;;;;;4949880;28;20213;-79
2022/07/10 03:15:58;;;;;;;10.73;9.73;;;;;;;;;;4952688;28;20455;-80
2022/07/10 03:18:23;;;;;;;10.33;9.37;;;;;;;;;;4950786;28;20186;-79
2022/07/10 03:20:48;;;;;;;9.47;8.67;;;;;;;;;;4949939;28;20210;-79
2022/07/10 03:23:14;;;;;;;10.47;9.57;;;;;;;;;;4938196;29;20230;-80
2022/07/10 03:25:39;;;;;;;10.00;9.17;;;;;;;;;;4949793;28;20192;-79
2022/07/10 03:28:04;;;;;;;9.97;9.03;;;;;;;;;;4950529;28;20183;-79
2022/07/10 03:30:29;;;;;;;11.10;10.20;;;;;;;;;;4935350;28;20253;-79
2022/07/10 03:32:55;;;;;;;10.20;9.20;;;;;;;;;;4934316;29;20179;-79
2022/07/10 03:35:20;;;;;;;9.23;8.40;;;;;;;;;;4950206;28;20203;-79
2022/07/10 03:37:45;;;;;;;8.20;7.50;;;;;;;;;;4948541;28;20178;-79
2022/07/10 03:40:10;;;;;;;11.27;7.93;;;;;;;;;;4954777;28;20179;-79
2022/07/10 03:42:35;;;;;;;6.93;6.10;;;;;;;;;;4949154;28;20209;-79
2022/07/10 03:45:01;;;;;;;9.43;7.30;;;;;;;;;;4949740;28;20174;-79
2022/07/10 03:47:26;;;;;;;6.90;6.30;;;;;;;;;;4937620;29;20193;-79
2022/07/10 03:49:51;;;;;;;7.57;6.77;;;;;;;;;;4949443;28;20182;-79
2022/07/10 03:52:16;;;;;;;7.97;7.07;;;;;;;;;;4948257;28;20213;-79
2022/07/10 03:54:41;;;;;;;7.97;6.73;;;;;;;;;;4954242;28;20188;-79
2022/07/10 03:59:51;;;;;;;6.37;5.67;;;;;;;;;;4934125;29;20611;-79
2022/07/10 04:02:16;;;;;;;6.97;6.07;;;;;;;;;;4947122;28;20301;-80
2022/07/10 04:04:41;;;;;;;6.63;5.67;;;;;;;;;;4950275;28;20220;-79
2022/07/10 04:07:06;;;;;;;6.80;6.30;;;;;;;;;;4936149;29;20186;-79
2022/07/10 04:09:31;;;;;;;7.23;5.80;;;;;;;;;;4949281;28;20193;-79
2022/07/10 04:11:57;;;;;;;5.73;5.20;;;;;;;;;;4933885;29;20261;-79
2022/07/10 04:14:22;;;;;;;7.20;5.87;;;;;;;;;;4949382;28;20206;-78
2022/07/10 04:16:47;;;;;;;6.07;4.57;;;;;;;;;;4933988;29;20181;-79
2022/07/10 04:19:12;;;;;;;6.47;5.30;;;;;;;;;;4947583;28;20276;-79
2022/07/10 04:21:38;;;;;;;6.97;5.10;;;;;;;;;;4952103;28;20224;-78
2022/07/10 04:24:03;;;;;;;6.70;5.27;;;;;;;;;;4949695;28;20236;-79
2022/07/10 04:26:29;;;;;;;5.63;4.57;;;;;;;;;;4950263;28;20197;-79
2022/07/10 04:28:54;;;;;;;6.23;4.67;;;;;;;;;;4952560;28;20185;-78
2022/07/10 04:31:19;;;;;;;4.37;4.03;;;;;;;;;;4948803;28;20192;-79
2022/07/10 04:33:44;;;;;;;4.30;3.97;;;;;;;;;;4945816;28;20252;-78
2022/07/10 04:36:09;;;;;;;5.13;4.60;;;;;;;;;;4951169;28;20196;-79
2022/07/10 04:38:35;;;;;;;6.10;4.97;;;;;;;;;;4950972;28;20219;-78
2022/07/10 04:41:00;;;;;;;4.70;4.20;;;;;;;;;;4955167;28;20213;-79
2022/07/10 04:43:25;;;;;;;4.60;4.00;;;;;;;;;;4947941;28;20188;-79
2022/07/10 04:45:51;;;;;;;8.57;3.87;;;;;;;;;;4932395;29;20291;-79
2022/07/10 04:48:16;;;;;;;4.97;3.60;;;;;;;;;;4948676;28;20236;-79
2022/07/10 04:50:41;;;;;;;3.87;3.57;;;;;;;;;;4948688;28;20194;-79
2022/07/10 04:53:06;;;;;;;4.10;3.57;;;;;;;;;;4957416;28;20180;-78
2022/07/10 04:55:32;;;;;;;4.20;3.40;;;;;;;;;;4947277;28;20236;-78
2022/07/10 04:57:57;;;;;;;3.43;3.13;;;;;;;;;;4953799;28;20188;-78
2022/07/10 05:00:22;;;;;;;3.53;3.33;;;;;;;;;;4950804;28;20186;-79
2022/07/10 05:02:48;;;;;;;3.50;3.20;;;;;;;;;;4948406;29;20181;-79
2022/07/10 05:05:13;;;;;;;6.53;3.33;;;;;;;;;;4948703;29;20185;-79
2022/07/10 05:07:38;;;;;;;4.70;3.53;;;;;;;;;;4952409;28;20177;-78
2022/07/10 05:10:03;;;;;;;3.30;3.10;;;;;;;;;;4948143;28;20189;-78
2022/07/10 05:12:29;;;;;;;3.47;3.17;;;;;;;;;;4947323;28;20256;-79
2022/07/10 05:14:55;;;;;;;5.80;4.17;;;;;;;;;;4931468;29;20290;-78
2022/07/10 05:17:20;;;;;;;7.27;3.93;;;;;;;;;;4949019;28;20323;-78
2022/07/10 05:19:46;;;;;;;3.20;2.90;;;;;;;;;;4948460;29;20266;-78
2022/07/10 05:22:11;;;;;;;4.17;2.90;;;;;;;;;;4945239;28;20217;-79
2022/07/10 05:24:37;;;;;;;3.53;3.13;;;;;;;;;;4934277;29;20224;-79
2022/07/10 05:27:02;;;;;;;3.60;3.30;;;;;;;;;;4933802;29;20215;-79
2022/07/10 05:29:28;;;;;;;6.77;3.07;;;;;;;;;;4950407;28;20272;-79
2022/07/10 05:31:53;;;;;;;4.00;2.77;;;;;;;;;;4947727;28;20374;-79
2022/07/10 05:34:18;;;;;;;3.00;2.73;;;;;;;;;;4948230;28;20303;-79
2022/07/10 05:36:43;;;;;;;6.10;2.40;;;;;;;;;;4932155;29;20181;-79
2022/07/10 05:39:08;;;;;;;5.27;2.90;;;;;;;;;;4945381;28;20203;-79
2022/07/10 05:41:34;;;;;;;3.50;2.77;;;;;;;;;;4955402;28;20202;-78
2022/07/10 05:43:59;;;;;;;4.70;2.90;;;;;;;;;;4947175;28;20365;-79
2022/07/10 05:46:25;;;;;;;6.70;3.23;;;;;;;;;;4947553;28;20188;-78
2022/07/10 05:48:50;;;;;;;3.40;2.70;;;;;;;;;;4947455;28;20185;-78
2022/07/10 05:51:15;;;;;;;4.73;2.97;;;;;;;;;;4948142;29;20271;-79
2022/07/10 05:53:41;;;;;;;4.83;3.20;;;;;;;;;;4947618;28;20189;-79
2022/07/10 05:56:06;;;;;;;3.70;2.50;;;;;;;;;;4951003;28;20216;-79
2022/07/10 05:58:31;;;;;;;4.40;2.90;;;;;;;;;;4950258;28;20271;-79
2022/07/10 06:00:56;;;;;;;3.93;2.47;;;;;;;;;;4955123;28;20306;-79
2022/07/10 06:03:22;;;;;;;3.33;2.40;;;;;;;;;;4932230;29;20283;-78
2022/07/10 06:05:47;;;;;;;4.70;2.67;;;;;;;;;;4931672;29;20185;-79
2022/07/10 06:08:12;;;;;;;2.60;2.30;;;;;;;;;;4933493;29;20257;-78
2022/07/10 06:10:39;;;;;;;4.83;2.83;;;;;;;;;;4946524;28;20189;-78
2022/07/10 06:13:05;;;;;;;5.83;3.47;;;;;;;;;;4944187;28;20204;-79
2022/07/10 06:15:30;;;;;;;4.03;2.60;;;;;;;;;;4938492;29;20190;-78
2022/07/10 06:17:58;;;;;;;6.60;2.57;;;;;;;;;;4946574;28;20253;-79
2022/07/10 06:20:25;;;;;;;2.40;2.20;;;;;;;;;;4929926;29;20182;-78
2022/07/10 06:22:50;;;;;;;3.60;2.93;;;;;;;;;;4946707;28;20196;-78
2022/07/10 06:25:15;;;;;;;2.80;2.37;;;;;;;;;;4947134;28;20197;-78
2022/07/10 06:27:40;;;;;;;2.20;2.00;;;;;;;;;;4955217;28;20188;-78
2022/07/10 06:30:06;;;;;;;5.10;2.80;;;;;;;;;;4953751;28;20189;-79
2022/07/10 06:32:31;;;;;;;2.40;2.20;;;;;;;;;;4954508;28;20190;-79
2022/07/10 06:34:56;;;;;;;3.53;2.47;;;;;;;;;;4954982;28;20182;-78
2022/07/10 06:37:25;;;;;;;3.40;2.70;;;;;;;;;;4939286;29;20251;-79
2022/07/10 06:39:50;;;;;;;3.20;2.60;;;;;;;;;;4951268;28;20197;-78
2022/07/10 06:42:15;;;;;;;3.63;2.40;;;;;;;;;;4951028;28;20202;-78
2022/07/10 06:44:42;;;;;;;2.57;2.10;;;;;;;;;;4952817;28;20188;-78
2022/07/10 06:49:51;;;;;;;2.23;1.90;;;;;;;;;;4935502;29;20205;-78
2022/07/10 06:52:17;;;;;;;4.20;2.57;;;;;;;;;;4950899;28;20188;-78
2022/07/10 06:54:45;;;;;;;2.47;2.10;;;;;;;;;;4949687;29;20200;-78
2022/07/10 06:57:10;;;;;;;2.50;2.03;;;;;;;;;;4950814;28;20304;-78
2022/07/10 06:59:36;;;;;;;2.40;2.10;;;;;;;;;;4932222;29;20252;-78
2022/07/10 07:02:01;;;;;;;2.23;1.90;;;;;;;;;;4947706;28;20293;-78
2022/07/10 07:04:26;;;;;;;4.93;2.30;;;;;;;;;;4939992;29;20186;-78
2022/07/10 07:06:52;;;;;;;5.80;2.47;;;;;;;;;;4951723;28;20196;-78
2022/07/10 07:09:17;;;;;;;2.93;2.60;;;;;;;;;;4949818;28;20180;-78
2022/07/10 07:11:42;;;;;;;5.20;2.13;;;;;;;;;;4950295;28;20232;-78
2022/07/10 07:14:07;;;;;;;4.97;2.40;;;;;;;;;;4935808;29;20246;-78
2022/07/10 07:16:41;;;;;;;4.00;2.17;;;;;;;;;;4953843;28;20205;-79
2022/07/10 07:19:07;;;;;;;4.50;2.60;;;;;;;;;;4954212;28;20193;-78
2022/07/10 07:24:18;;;;;;;3.33;2.27;;;;;;;;;;4933656;29;20233;-78
2022/07/10 07:26:44;;;;;;;2.97;2.00;;;;;;;;;;4950658;28;20189;-78
2022/07/10 07:29:09;;;;;;;3.00;2.30;;;;;;;;;;4957217;28;20176;-79
2022/07/10 07:31:34;;;;;;;3.30;2.40;;;;;;;;;;4956748;28;20182;-78
2022/07/10 07:33:59;;;;;;;2.40;2.20;;;;;;;;;;4951681;28;20201;-78
2022/07/10 07:36:25;;;;;;;4.10;2.93;;;;;;;;;;4941018;29;20192;-78
2022/07/10 07:38:52;;;;;;;2.83;2.63;;;;;;;;;;4947867;28;20255;-79
2022/07/10 07:41:17;;;;;;;4.77;2.60;;;;;;;;;;4934428;29;20209;-78
2022/07/10 07:43:42;;;;;;;5.10;2.70;;;;;;;;;;4949915;28;20178;-79
2022/07/10 07:46:10;;;;;;;5.63;2.60;;;;;;;;;;4955877;28;20182;-79
2022/07/10 07:48:35;;;;;;;5.23;3.77;;;;;;;;;;4955507;28;20186;-78
2022/07/10 07:51:00;;;;;;;4.43;2.80;;;;;;;;;;4947282;28;20397;-79
2022/07/10 07:53:25;;;;;;;3.83;2.60;;;;;;;;;;4938253;29;20182;-79
2022/07/10 07:55:51;;;;;;;3.23;2.70;;;;;;;;;;4949298;28;20217;-78
2022/07/10 07:58:16;;;;;;;3.20;2.60;;;;;;;;;;4951237;28;20219;-79
2022/07/10 08:00:41;;;;;;;3.00;2.70;;;;;;;;;;4956845;28;20176;-79
2022/07/10 08:03:08;;;;;;;3.23;2.73;;;;;;;;;;4934829;29;20185;-79
2022/07/10 08:05:33;;;;;;;3.20;2.90;;;;;;;;;;4947513;28;20188;-78
2022/07/10 08:08:04;;;;;;;6.73;2.83;;;;;;;;;;4953026;28;20184;-79
2022/07/10 08:10:29;;;;;;;3.10;2.80;;;;;;;;;;4933736;29;20314;-78
2022/07/10 08:12:54;;;;;;;5.33;2.90;;;;;;;;;;4948310;28;20267;-79
2022/07/10 08:15:23;;;;;;;4.07;2.90;;;;;;;;;;4959466;28;20597;-78
2022/07/10 08:17:49;;;;;;;7.20;2.90;;;;;;;;;;4933725;29;20203;-79
2022/07/10 08:20:14;;;;;;;7.63;3.53;;;;;;;;;;4933283;29;20181;-79
2022/07/10 08:22:40;;;;;;;3.33;3.03;;;;;;;;;;4950296;28;20280;-78
2022/07/10 08:25:05;;;;;;;3.87;2.97;;;;;;;;;;4942149;29;20231;-79
2022/07/10 08:27:31;;;;;;;3.00;2.70;;;;;;;;;;4935717;29;20184;-78
2022/07/10 08:29:56;;;;;;;4.10;3.00;;;;;;;;;;4957577;28;20188;-78
2022/07/10 08:32:21;;;;;;;6.90;3.33;;;;;;;;;;4949043;28;20197;-79
2022/07/10 08:34:48;;;;;;;5.53;2.77;;;;;;;;;;4934569;29;20244;-77
2022/07/10 08:37:13;;;;;;;10.37;3.20;;;;;;;;;;4941862;28;20244;-79
2022/07/10 08:39:39;;;;;;;4.17;3.10;;;;;;;;;;4948320;28;20189;-78
2022/07/10 08:42:04;;;;;;;3.43;2.70;;;;;;;;;;4947199;28;20275;-79
2022/07/10 08:44:30;;;;;;;3.87;3.40;;;;;;;;;;4958944;28;20456;-78
2022/07/10 08:46:55;;;;;;;3.53;2.77;;;;;;;;;;4948891;28;20178;-79
2022/07/10 08:49:26;;;;;;;3.60;3.20;;;;;;;;;;4947556;28;20189;-78
2022/07/10 08:51:56;;;;;;;6.60;2.80;;;;;;;;;;4934341;29;20198;-79
2022/07/10 08:54:21;;;;;;;3.50;2.93;;;;;;;;;;4939024;29;20181;-78
2022/07/10 08:56:47;;;;;;;5.50;3.30;;;;;;;;;;4950213;28;20277;-78
2022/07/10 08:59:13;;;;;;;4.00;2.77;;;;;;;;;;4944228;28;20196;-78
2022/07/10 09:01:39;;;;;;;3.50;2.90;;;;;;;;;;4956269;28;20215;-78
2022/07/10 09:04:04;;;;;;;5.00;3.03;;;;;;;;;;4932647;29;20182;-78
2022/07/10 09:06:29;;;;;;;4.70;3.20;;;;;;;;;;4939219;29;20185;-78
2022/07/10 09:08:59;;;;;;;5.20;3.03;;;;;;;;;;4938070;29;20189;-79
2022/07/10 09:11:26;;;;;;;3.33;3.03;;;;;;;;;;4931313;29;20189;-78
2022/07/10 09:14:07;;;;;;;4.43;3.27;;;;;;;;;;4949922;28;20283;-78
2022/07/10 09:16:38;;;;;;;3.03;2.73;;;;;;;;;;4951926;28;20192;-78
2022/07/10 09:19:22;;;;;;;4.00;3.60;;;;;;;;;;4932796;29;20190;-79
2022/07/10 09:21:48;;;;;;;3.37;2.53;;;;;;;;;;4936219;29;20234;-78
2022/07/10 09:24:14;;;;;;;3.07;2.87;;;;;;;;;;4932338;29;20230;-78
2022/07/10 09:26:39;;;;;;;5.17;2.63;;;;;;;;;;4930593;29;20233;-88
2022/07/10 09:29:06;;;;;;;2.93;2.63;;;;;;;;;;4946872;28;20269;-85
2022/07/10 09:31:47;;;;;;;3.60;2.60;;;;;;;;;;4932207;29;20197;-86
2022/07/10 09:34:13;;;;;;;4.53;3.00;;;;;;;;;;4950158;28;20179;-86
2022/07/10 09:36:38;;;;;;;7.07;3.10;;;;;;;;;;4946174;29;20193;-85
2022/07/10 09:39:05;;;;;;;3.70;2.63;;;;;;;;;;4946946;29;20209;-85
2022/07/10 09:41:31;;;;;;;3.43;3.00;;;;;;;;;;4952319;28;20209;-84
2022/07/10 09:43:57;;;;;;;5.10;2.73;;;;;;;;;;4950203;28;20186;-84
2022/07/10 09:46:28;;;;;;;3.17;2.50;;;;;;;;;;4937689;28;20179;-86
2022/07/10 09:49:04;;;;;;;2.93;2.33;;;;;;;;;;4927382;29;20206;-88
2022/07/10 09:51:32;;;;;;;4.53;2.60;;;;;;;;;;4934776;29;20203;-85
2022/07/10 09:53:59;;;;;;;4.00;2.70;;;;;;;;;;4937182;29;20186;-88
2022/07/10 09:56:26;;;;;;;2.93;2.73;;;;;;;;;;4940892;29;20252;-85
2022/07/10 09:58:52;;;;;;;8.67;3.27;;;;;;;;;;4952487;28;20194;-87
2022/07/10 10:01:18;;;;;;;4.53;3.20;;;;;;;;;;4950904;28;20222;-83
2022/07/10 10:03:43;;;;;;;3.00;2.70;;;;;;;;;;4936069;29;20183;-83
2022/07/10 10:06:11;;;;;;;4.07;3.47;;;;;;;;;;4937938;29;20234;-83
2022/07/10 10:08:43;;;;;;;4.10;2.90;;;;;;;;;;4953712;28;20449;-84
2022/07/10 10:11:12;;;;;;;4.33;3.47;;;;;;;;;;4935901;29;20187;-86
2022/07/10 10:13:37;;;;;;;5.17;3.13;;;;;;;;;;4955700;28;20184;-84
2022/07/10 10:16:03;;;;;;;6.27;3.70;;;;;;;;;;4940111;29;20203;-86
2022/07/10 10:18:29;;;;;;;2.90;2.70;;;;;;;;;;4952614;28;20188;-86
2022/07/10 10:20:55;;;;;;;5.13;3.17;;;;;;;;;;4948404;28;20304;-86
2022/07/10 10:23:21;;;;;;;4.80;3.13;;;;;;;;;;4955758;28;20332;-84
2022/07/10 10:25:51;;;;;;;4.03;2.83;;;;;;;;;;4954060;28;20172;-85
2022/07/10 10:28:17;;;;;;;2.70;2.50;;;;;;;;;;4952163;28;20178;-84
2022/07/10 10:30:43;;;;;;;7.03;3.03;;;;;;;;;;4955336;28;20251;-85
2022/07/10 10:33:27;;;;;;;6.03;3.10;;;;;;;;;;4936638;29;20200;-85
2022/07/10 10:35:52;;;;;;;3.60;3.03;;;;;;;;;;4950707;28;20185;-85
2022/07/10 10:38:17;;;;;;;3.83;2.90;;;;;;;;;;4956075;28;20196;-84
2022/07/10 10:40:42;;;;;;;6.93;3.17;;;;;;;;;;4952910;28;20198;-85
2022/07/10 10:43:21;;;;;;;3.37;2.50;;;;;;;;;;4950730;28;20188;-86
2022/07/10 10:45:47;;;;;;;5.07;2.90;;;;;;;;;;4949402;29;20188;-86
2022/07/10 10:48:17;;;;;;;5.40;2.80;;;;;;;;;;4950210;28;20210;-86
2022/07/10 10:50:42;;;;;;;4.20;2.50;;;;;;;;;;4950695;29;20178;-85
2022/07/10 10:53:14;;;;;;;2.97;2.40;;;;;;;;;;4934937;29;20193;-86
2022/07/10 10:55:40;;;;;;;4.07;2.20;;;;;;;;;;4935368;29;20319;-86
2022/07/10 10:58:14;;;;;;;3.93;1.80;;;;;;;;;;4952257;28;20218;-84
2022/07/10 11:00:42;;;;;;;2.17;1.80;;;;;;;;;;4951864;28;20252;-87
2022/07/10 11:03:15;;;;;;;3.20;1.93;;;;;;;;;;4958250;28;20241;-86
2022/07/10 11:05:43;;;;;;;2.43;1.90;;;;;;;;;;4950952;29;20254;-84
2022/07/10 11:08:10;;;;;;;3.13;1.90;;;;;;;;;;4934679;29;20210;-86
2022/07/10 11:10:35;;;;;;;5.53;1.97;;;;;;;;;;4935260;29;20186;-88
2022/07/10 11:13:01;;;;;;;4.23;1.90;;;;;;;;;;4948764;28;20190;-86
2022/07/10 11:15:30;;;;;;;3.43;2.03;;;;;;;;;;4952908;28;20229;-86
2022/07/10 11:17:55;;;;;;;2.20;1.70;;;;;;;;;;4937103;29;20250;-85
2022/07/10 11:20:21;;;;;;;2.33;1.70;;;;;;;;;;4954106;28;20340;-83
2022/07/10 11:22:49;;;;;;;2.23;1.50;;;;;;;;;;4957194;28;20351;-87
2022/07/10 11:25:17;;;;;;;3.57;1.80;;;;;;;;;;4949827;28;20230;-85
2022/07/10 11:28:01;;;;;;;2.97;1.40;;;;;;;;;;4952605;28;21378;-86
2022/07/10 11:30:27;;;;;;;2.10;1.90;;;;;;;;;;4953823;28;20183;-84
2022/07/10 11:32:52;;;;;;;2.80;1.70;;;;;;;;;;4951457;28;20194;-85
2022/07/10 11:35:18;;;;;;;2.00;1.63;;;;;;;;;;4954676;28;20221;-86
2022/07/10 11:37:50;;;;;;;2.03;1.43;;;;;;;;;;4950697;28;20194;-85
2022/07/10 11:40:15;;;;;;;2.93;1.77;;;;;;;;;;4932938;29;20189;-86
2022/07/10 11:42:55;;;;;;;2.57;1.30;;;;;;;;;;4954796;28;20218;-86
2022/07/10 11:45:20;;;;;;;2.47;1.83;;;;;;;;;;4950435;29;20187;-85
2022/07/10 11:47:46;;;;;;;1.97;1.13;;;;;;;;;;4951773;28;20169;-86
2022/07/10 11:50:11;;;;;;;3.57;1.73;;;;;;;;;;4937621;29;20188;-85
2022/07/10 11:52:36;;;;;;;2.77;1.43;;;;;;;;;;4950078;29;20180;-85
2022/07/10 11:55:15;;;;;;;3.40;1.17;;;;;;;;;;4929780;29;20186;-87
2022/07/10 11:57:50;;;;;;;1.47;1.30;;;;;;;;;;4938610;29;20201;-87
2022/07/10 12:00:23;;;;;;;2.37;1.60;;;;;;;;;;4953675;28;20189;-88
2022/07/10 12:02:49;;;;;;;1.23;1.13;;;;;;;;;;4947363;29;20216;-87
2022/07/10 12:05:50;;;;;;;1.33;1.20;;;;;;;;;;4949375;28;20189;-86
2022/07/10 12:08:16;;;;;;;2.73;1.30;;;;;;;;;;4875334;29;20196;-82
2022/07/10 12:10:42;;;;;;;2.03;1.07;;;;;;;;;;4875779;29;20203;-86
2022/07/10 12:13:10;;;;;;;2.77;1.53;;;;;;;;;;4866173;29;20194;-87
2022/07/10 12:15:37;;;;;;;1.00;0.90;;;;;;;;;;4860483;29;20245;-89
2022/07/10 12:18:03;;;;;;;1.50;1.10;;;;;;;;;;4877090;29;20222;-86
2022/07/10 12:20:28;;;;;;;1.33;1.10;;;;;;;;;;4876487;29;20177;-87
2022/07/10 12:22:54;;;;;;;1.30;1.03;;;;;;;;;;4885594;29;20230;-86
2022/07/10 12:25:20;;;;;;;1.10;1.00;;;;;;;;;;4883044;29;20326;-86
2022/07/10 12:27:45;;;;;;;2.33;0.93;;;;;;;;;;4877764;29;20188;-86
2022/07/10 12:30:10;;;;;;;1.33;0.97;;;;;;;;;;4876990;29;20195;-85
2022/07/10 12:32:35;;;;;;;2.10;1.33;;;;;;;;;;4876292;29;20215;-86
2022/07/10 12:35:01;;;;;;;2.33;1.30;;;;;;;;;;4876888;29;20200;-85
2022/07/10 12:37:26;;;;;;;1.00;1.00;;;;;;;;;;4863113;29;20230;-85
2022/07/10 12:39:56;;;;;;;2.60;1.23;;;;;;;;;;4872107;29;20197;-87
2022/07/10 12:42:31;;;;;;;1.30;1.20;;;;;;;;;;4918027;28;20246;-87
2022/07/10 12:45:09;;;;;;;2.60;1.20;;;;;;;;;;4933761;29;20250;-84
2022/07/10 12:47:45;;;;;;;1.20;0.80;;;;;;;;;;4949755;29;20250;-86
2022/07/10 12:50:11;;;;;;;1.60;1.47;;;;;;;;;;4933018;29;20191;-84
2022/07/10 12:52:38;;;;;;;2.00;1.30;;;;;;;;;;4949312;29;20185;-85
2022/07/10 12:55:10;;;;;;;3.90;1.00;;;;;;;;;;4949257;28;20186;-86
2022/07/10 12:57:47;;;;;;;4.27;1.50;;;;;;;;;;4933261;29;20206;-87
2022/07/10 13:00:13;;;;;;;3.20;1.87;;;;;;;;;;4952088;28;20182;-86
2022/07/10 13:02:38;;;;;;;1.20;0.57;;;;;;;;;;4947461;28;20201;-87
2022/07/10 13:05:04;;;;;;;1.67;1.13;;;;;;;;;;4949076;29;20203;-86
2022/07/10 13:07:30;;;;;;;1.47;1.23;;;;;;;;;;4948882;28;20188;-87
2022/07/10 13:09:55;;;;;;;1.77;1.23;;;;;;;;;;4949139;29;20185;-86
2022/07/10 13:12:21;;;;;;;2.83;1.43;;;;;;;;;;4933429;29;20363;-88
2022/07/10 13:14:46;;;;;;;1.43;1.00;;;;;;;;;;4951976;28;20178;-87
2022/07/10 13:17:11;;;;;;;4.03;1.40;;;;;;;;;;4932049;29;20192;-84
2022/07/10 13:19:39;;;;;;;0.97;0.90;;;;;;;;;;4948847;29;20179;-85
2022/07/10 13:22:04;;;;;;;1.97;1.40;;;;;;;;;;4936427;29;20203;-87
2022/07/10 13:24:29;;;;;;;3.23;1.60;;;;;;;;;;4955834;28;20230;-86
2022/07/10 13:26:56;;;;;;;2.40;1.23;;;;;;;;;;4948423;28;20188;-87
2022/07/10 13:29:22;;;;;;;1.50;1.37;;;;;;;;;;4949422;28;20187;-86
2022/07/10 13:31:47;;;;;;;1.63;0.90;;;;;;;;;;4952176;28;20231;-87
2022/07/10 13:34:12;;;;;;;4.40;2.87;;;;;;;;;;4948260;28;20183;-85
2022/07/10 13:36:37;;;;;;;2.83;0.90;;;;;;;;;;4932782;29;20230;-88
2022/07/10 13:39:03;;;;;;;2.37;1.13;;;;;;;;;;4947257;28;20459;-87
2022/07/10 13:41:28;;;;;;;5.73;1.50;;;;;;;;;;4948077;29;20336;-87
2022/07/10 13:43:53;;;;;;;2.77;1.00;;;;;;;;;;4947915;28;23319;-87
2022/07/10 13:46:18;;;;;;;1.87;1.57;;;;;;;;;;4954336;28;20202;-84
2022/07/10 13:48:44;;;;;;;1.53;1.20;;;;;;;;;;4952472;28;20195;-87
2022/07/10 13:51:09;;;;;;;2.60;1.20;;;;;;;;;;4954938;28;20180;-86
2022/07/10 13:53:34;;;;;;;1.77;1.00;;;;;;;;;;4953232;28;20188;-83
2022/07/10 13:56:00;;;;;;;2.63;1.80;;;;;;;;;;4949729;28;20204;-87
2022/07/10 13:58:25;;;;;;;1.10;1.00;;;;;;;;;;4931839;29;20192;-86
2022/07/10 14:00:50;;;;;;;2.83;1.03;;;;;;;;;;4946969;28;20268;-85
2022/07/10 14:03:15;;;;;;;3.27;1.40;;;;;;;;;;4951189;28;20276;-87
2022/07/10 14:05:41;;;;;;;1.50;1.10;;;;;;;;;;4947328;28;20197;-83
2022/07/10 14:08:06;;;;;;;1.80;1.10;;;;;;;;;;4951654;28;20189;-86
2022/07/10 14:10:31;;;;;;;0.90;0.90;;;;;;;;;;4931855;29;20197;-87
2022/07/10 14:12:59;;;;;;;1.13;1.03;;;;;;;;;;4933127;29;20189;-86
2022/07/10 14:15:25;;;;;;;2.10;1.13;;;;;;;;;;4937582;29;20257;-85
2022/07/10 14:17:51;;;;;;;4.63;1.30;;;;;;;;;;4947758;28;20196;-87
2022/07/10 14:20:17;;;;;;;1.30;1.20;;;;;;;;;;4931760;29;20180;-86
2022/07/10 14:22:45;;;;;;;3.70;1.20;;;;;;;;;;4949315;28;20278;-86
2022/07/10 14:25:11;;;;;;;3.20;1.20;;;;;;;;;;4933089;29;20242;-87
2022/07/10 14:27:36;;;;;;;1.27;1.03;;;;;;;;;;4949153;28;20176;-86
2022/07/10 14:30:02;;;;;;;2.50;1.30;;;;;;;;;;4935882;29;20180;-83
2022/07/10 14:32:27;;;;;;;2.10;1.30;;;;;;;;;;4942032;29;20189;-86
2022/07/10 14:34:52;;;;;;;1.27;1.07;;;;;;;;;;4949144;28;20187;-86
2022/07/10 14:37:17;;;;;;;1.90;1.10;;;;;;;;;;4928442;29;20176;-86
2022/07/10 14:39:43;;;;;;;1.67;1.20;;;;;;;;;;4949383;28;20194;-86
2022/07/10 14:42:09;;;;;;;2.20;1.27;;;;;;;;;;4932892;29;20198;-86
2022/07/10 14:44:37;;;;;;;2.77;1.27;;;;;;;;;;4947275;28;20196;-87
2022/07/10 14:47:03;;;;;;;3.30;1.10;;;;;;;;;;4932326;29;20282;-87